XBSSA MMVR-MMMX
Flight info
| Callsign | XBSSA |
|---|---|
| Flight time | 0h 30m |
| Altitude | 30000 |
| Route | IKLE1C IKLES UT178 REXES ENAGA ENAG3B |
| Aircraft | B736/M-VGDW/C |
Departure
| Time | 2026-04-25 05:23 |
|---|---|
| Airport | General Heriberto Jara International Airport (MMVR) |
Arrival
| Time | 2026-04-25 05:53 |
|---|---|
| Airport | Mexico City Benito Juárez International Airport (MMMX) |
| Time | Latitude | Longitude | Altitude | Speed | Heading |
|---|---|---|---|---|---|
| 2026-04-25 05:16 | 19.14334 | -96.18415 | 98 ft | 0 kts | 101° |
| 2026-04-25 05:18 | 19.14336 | -96.18425 | 98 ft | 3 kts | 102° |
| 2026-04-25 05:18 | 19.14341 | -96.18445 | 98 ft | 3 kts | 108° |
| 2026-04-25 05:18 | 19.14348 | -96.18463 | 98 ft | 3 kts | 121° |
| 2026-04-25 05:18 | 19.14361 | -96.18479 | 98 ft | 3 kts | 165° |
| 2026-04-25 05:19 | 19.14371 | -96.18480 | 98 ft | 1 kts | 192° |
| 2026-04-25 05:19 | 19.14374 | -96.18479 | 98 ft | 0 kts | 192° |
| 2026-04-25 05:20 | 19.14352 | -96.18489 | 98 ft | 9 kts | 211° |
| 2026-04-25 05:20 | 19.14257 | -96.18516 | 98 ft | 18 kts | 191° |
| 2026-04-25 05:20 | 19.14210 | -96.18582 | 98 ft | 11 kts | 272° |
| 2026-04-25 05:20 | 19.14179 | -96.18646 | 98 ft | 10 kts | 221° |
| 2026-04-25 05:21 | 19.14127 | -96.18694 | 98 ft | 10 kts | 221° |
| 2026-04-25 05:21 | 19.14089 | -96.18731 | 98 ft | 4 kts | 223° |
| 2026-04-25 05:21 | 19.14075 | -96.18743 | 98 ft | 0 kts | 223° |
| 2026-04-25 05:21 | 19.14035 | -96.18782 | 98 ft | 17 kts | 222° |
| 2026-04-25 05:22 | 19.13984 | -96.18864 | 98 ft | 4 kts | 346° |
| 2026-04-25 05:22 | 19.14002 | -96.18858 | 98 ft | 0 kts | 12° |
| 2026-04-25 05:22 | 19.14009 | -96.18856 | 98 ft | 13 kts | 12° |
| 2026-04-25 05:22 | 19.14507 | -96.18751 | 99 ft | 129 kts | 12° |
| 2026-04-25 05:23 | 19.15632 | -96.18496 | 427 ft | 194 kts | 13° |
| 2026-04-25 05:23 | 19.17105 | -96.18137 | 1048 ft | 235 kts | 12° |
| 2026-04-25 05:23 | 19.18794 | -96.17864 | 1812 ft | 257 kts | 9° |
| 2026-04-25 05:23 | 19.20615 | -96.17503 | 2530 ft | 275 kts | 12° |
| 2026-04-25 05:24 | 19.22543 | -96.17089 | 3270 ft | 284 kts | 13° |
| 2026-04-25 05:24 | 19.24494 | -96.16760 | 4019 ft | 287 kts | 2° |
| 2026-04-25 05:24 | 19.26392 | -96.17269 | 5067 ft | 286 kts | 330° |
| 2026-04-25 05:24 | 19.27804 | -96.18734 | 6390 ft | 284 kts | 301° |
| 2026-04-25 05:25 | 19.28689 | -96.20607 | 7712 ft | 288 kts | 294° |
| 2026-04-25 05:25 | 19.29683 | -96.22471 | 9020 ft | 293 kts | 301° |
| 2026-04-25 05:25 | 19.30845 | -96.24255 | 10328 ft | 296 kts | 305° |
| 2026-04-25 05:25 | 19.32108 | -96.26019 | 11720 ft | 300 kts | 307° |
| 2026-04-25 05:26 | 19.33371 | -96.27769 | 13087 ft | 303 kts | 307° |
| 2026-04-25 05:26 | 19.34640 | -96.29552 | 14465 ft | 305 kts | 307° |
| 2026-04-25 05:26 | 19.35924 | -96.31370 | 15858 ft | 305 kts | 307° |
| 2026-04-25 05:26 | 19.37175 | -96.33153 | 17139 ft | 307 kts | 307° |
| 2026-04-25 05:27 | 19.38448 | -96.34966 | 18419 ft | 307 kts | 307° |
| 2026-04-25 05:27 | 19.39767 | -96.36759 | 19692 ft | 307 kts | 309° |
| 2026-04-25 05:27 | 19.41100 | -96.38516 | 20920 ft | 307 kts | 309° |
| 2026-04-25 05:27 | 19.42460 | -96.40329 | 21685 ft | 324 kts | 309° |
| 2026-04-25 05:28 | 19.43909 | -96.42270 | 22194 ft | 346 kts | 309° |
| 2026-04-25 05:28 | 19.45447 | -96.44335 | 22630 ft | 368 kts | 309° |
| 2026-04-25 05:28 | 19.47075 | -96.46524 | 22978 ft | 389 kts | 309° |
| 2026-04-25 05:28 | 19.48793 | -96.48826 | 23229 ft | 410 kts | 308° |
| 2026-04-25 05:29 | 19.50597 | -96.51251 | 23607 ft | 422 kts | 308° |
| 2026-04-25 05:29 | 19.52407 | -96.53689 | 24616 ft | 416 kts | 308° |
| 2026-04-25 05:29 | 19.54176 | -96.56072 | 25737 ft | 408 kts | 308° |
| 2026-04-25 05:29 | 19.55823 | -96.58476 | 26856 ft | 400 kts | 300° |
| 2026-04-25 05:30 | 19.56907 | -96.61143 | 27979 ft | 392 kts | 287° |
| 2026-04-25 05:30 | 19.57361 | -96.63959 | 29101 ft | 385 kts | 276° |
| 2026-04-25 05:30 | 19.57531 | -96.66793 | 29574 ft | 397 kts | 273° |
| 2026-04-25 05:30 | 19.57564 | -96.69816 | 29710 ft | 413 kts | 271° |
| 2026-04-25 05:31 | 19.57519 | -96.72912 | 29804 ft | 427 kts | 270° |
| 2026-04-25 05:31 | 19.57470 | -96.76069 | 29832 ft | 438 kts | 270° |
| 2026-04-25 05:31 | 19.57422 | -96.79380 | 29839 ft | 447 kts | 270° |
| 2026-04-25 05:32 | 19.57328 | -96.86033 | 29848 ft | 460 kts | 270° |
| 2026-04-25 05:32 | 19.57581 | -96.92825 | 29855 ft | 463 kts | 281° |
| 2026-04-25 05:33 | 19.59846 | -96.99179 | 29867 ft | 464 kts | 297° |
| 2026-04-25 05:33 | 19.63098 | -97.05116 | 29872 ft | 465 kts | 300° |
| 2026-04-25 05:34 | 19.66415 | -97.10987 | 29875 ft | 465 kts | 300° |
| 2026-04-25 05:34 | 19.69723 | -97.16875 | 29877 ft | 465 kts | 299° |
| 2026-04-25 05:35 | 19.73029 | -97.22775 | 29878 ft | 464 kts | 299° |
| 2026-04-25 05:35 | 19.76327 | -97.28627 | 29877 ft | 464 kts | 300° |
| 2026-04-25 05:36 | 19.79644 | -97.34519 | 29875 ft | 464 kts | 299° |
| 2026-04-25 05:36 | 19.82934 | -97.40409 | 29873 ft | 464 kts | 299° |
| 2026-04-25 05:37 | 19.86231 | -97.46321 | 29869 ft | 464 kts | 299° |
| 2026-04-25 05:37 | 19.89504 | -97.52212 | 29880 ft | 464 kts | 297° |
| 2026-04-25 05:38 | 19.92001 | -97.58504 | 29889 ft | 461 kts | 286° |
| 2026-04-25 05:38 | 19.93400 | -97.65142 | 29895 ft | 460 kts | 279° |
| 2026-04-25 05:39 | 19.94463 | -97.71843 | 29903 ft | 460 kts | 279° |
| 2026-04-25 05:39 | 19.95549 | -97.78552 | 29912 ft | 459 kts | 279° |
| 2026-04-25 05:40 | 19.96646 | -97.85241 | 29922 ft | 459 kts | 279° |
| 2026-04-25 05:40 | 19.97770 | -97.91929 | 29931 ft | 459 kts | 279° |
| 2026-04-25 05:41 | 19.98865 | -97.98619 | 29939 ft | 459 kts | 279° |
| 2026-04-25 05:41 | 19.99954 | -98.05324 | 29944 ft | 459 kts | 279° |
| 2026-04-25 05:42 | 20.01031 | -98.11963 | 29941 ft | 460 kts | 279° |
| 2026-04-25 05:42 | 20.01379 | -98.15354 | 29553 ft | 461 kts | 269° |
| 2026-04-25 05:42 | 20.00775 | -98.18709 | 28930 ft | 467 kts | 252° |
| 2026-04-25 05:42 | 19.99439 | -98.21879 | 28304 ft | 473 kts | 244° |
| 2026-04-25 05:43 | 19.97742 | -98.24900 | 27677 ft | 479 kts | 239° |
| 2026-04-25 05:43 | 19.95831 | -98.27827 | 27052 ft | 485 kts | 236° |
| 2026-04-25 05:43 | 19.93825 | -98.30661 | 26437 ft | 490 kts | 234° |
| 2026-04-25 05:43 | 19.91705 | -98.33582 | 25700 ft | 493 kts | 234° |
| 2026-04-25 05:44 | 19.89634 | -98.36496 | 24947 ft | 492 kts | 235° |
| 2026-04-25 05:44 | 19.87594 | -98.39404 | 24140 ft | 490 kts | 235° |
| 2026-04-25 05:44 | 19.85569 | -98.42309 | 23314 ft | 487 kts | 235° |
| 2026-04-25 05:44 | 19.83569 | -98.45188 | 22489 ft | 483 kts | 235° |
| 2026-04-25 05:45 | 19.81584 | -98.48050 | 21632 ft | 479 kts | 235° |
| 2026-04-25 05:45 | 19.79627 | -98.50894 | 20755 ft | 474 kts | 235° |
| 2026-04-25 05:45 | 19.77691 | -98.53700 | 19879 ft | 468 kts | 235° |
| 2026-04-25 05:45 | 19.75776 | -98.56469 | 19002 ft | 461 kts | 235° |
| 2026-04-25 05:46 | 19.73900 | -98.59182 | 18123 ft | 453 kts | 235° |
| 2026-04-25 05:46 | 19.72679 | -98.60955 | 17547 ft | 452 kts | 235° |
| 2026-04-25 05:46 | 19.70231 | -98.64497 | 16384 ft | 444 kts | 235° |
| 2026-04-25 05:46 | 19.68402 | -98.67128 | 15511 ft | 442 kts | 234° |
| 2026-04-25 05:47 | 19.67183 | -98.68880 | 14922 ft | 437 kts | 234° |
| 2026-04-25 05:47 | 19.64809 | -98.72297 | 13749 ft | 429 kts | 234° |
| 2026-04-25 05:47 | 19.63598 | -98.74003 | 13164 ft | 428 kts | 233° |
| 2026-04-25 05:47 | 19.61904 | -98.76488 | 12368 ft | 407 kts | 237° |
| 2026-04-25 05:48 | 19.60462 | -98.78922 | 11479 ft | 375 kts | 239° |
| 2026-04-25 05:48 | 19.59183 | -98.81203 | 10876 ft | 342 kts | 240° |
| 2026-04-25 05:48 | 19.58080 | -98.83301 | 10499 ft | 311 kts | 242° |
| 2026-04-25 05:48 | 19.57034 | -98.85196 | 10158 ft | 286 kts | 238° |
| 2026-04-25 05:49 | 19.55969 | -98.86964 | 9856 ft | 283 kts | 237° |
| 2026-04-25 05:49 | 19.54815 | -98.88662 | 9556 ft | 285 kts | 234° |
| 2026-04-25 05:49 | 19.53640 | -98.90361 | 9256 ft | 287 kts | 234° |
| 2026-04-25 05:49 | 19.52443 | -98.92057 | 9099 ft | 285 kts | 232° |
| 2026-04-25 05:50 | 19.51200 | -98.93687 | 9065 ft | 285 kts | 231° |
| 2026-04-25 05:50 | 19.50010 | -98.95360 | 9057 ft | 277 kts | 238° |
| 2026-04-25 05:50 | 19.49149 | -98.97062 | 9045 ft | 246 kts | 241° |
| 2026-04-25 05:50 | 19.48345 | -98.98518 | 8918 ft | 216 kts | 239° |
| 2026-04-25 05:51 | 19.47607 | -98.99829 | 8662 ft | 198 kts | 239° |
| 2026-04-25 05:51 | 19.46943 | -99.01010 | 8426 ft | 175 kts | 238° |
| 2026-04-25 05:51 | 19.46363 | -99.02041 | 8188 ft | 150 kts | 238° |
| 2026-04-25 05:51 | 19.45862 | -99.02931 | 7971 ft | 134 kts | 237° |
| 2026-04-25 05:52 | 19.45399 | -99.03755 | 7789 ft | 127 kts | 237° |
| 2026-04-25 05:52 | 19.44954 | -99.04545 | 7603 ft | 123 kts | 237° |
| 2026-04-25 05:52 | 19.44524 | -99.05309 | 7405 ft | 122 kts | 237° |
| 2026-04-25 05:52 | 19.44127 | -99.06045 | 7326 ft | 114 kts | 237° |
| 2026-04-25 05:53 | 19.43821 | -99.06584 | 7324 ft | 53 kts | 239° |
| 2026-04-25 05:53 | 19.43677 | -99.06842 | 7324 ft | 35 kts | 239° |
| 2026-04-25 05:53 | 19.43560 | -99.07053 | 7324 ft | 32 kts | 239° |
| 2026-04-25 05:53 | 19.43451 | -99.07243 | 7324 ft | 29 kts | 242° |
| 2026-04-25 05:54 | 19.43358 | -99.07418 | 7324 ft | 26 kts | 237° |
| 2026-04-25 05:54 | 19.43256 | -99.07580 | 7324 ft | 26 kts | 225° |
| 2026-04-25 05:54 | 19.42988 | -99.07771 | 7324 ft | 21 kts | 209° |
| 2026-04-25 05:55 | 19.42866 | -99.07842 | 7324 ft | 20 kts | 208° |
| 2026-04-25 05:55 | 19.42750 | -99.07903 | 7324 ft | 9 kts | 180° |
| 2026-04-25 05:55 | 19.42714 | -99.07879 | 7324 ft | 6 kts | 145° |
| 2026-04-25 05:55 | 19.42665 | -99.07849 | 7324 ft | 13 kts | 152° |
| 2026-04-25 05:56 | 19.42578 | -99.07797 | 7324 ft | 14 kts | 149° |
| 2026-04-25 05:56 | 19.42474 | -99.07731 | 7324 ft | 19 kts | 150° |
| 2026-04-25 05:56 | 19.42360 | -99.07662 | 7324 ft | 18 kts | 155° |
| 2026-04-25 05:56 | 19.42345 | -99.07605 | 7324 ft | 5 kts | 331° |
| 2026-04-25 05:57 | 19.42354 | -99.07622 | 7324 ft | 2 kts | 297° |
| 2026-04-25 05:57 | 19.42356 | -99.07625 | 7324 ft | 0 kts | 297° |